Rebecq-Rognon, Belgium
Current Conditions -  °F | °C
As of 1:25 PM on Friday 31 Oct 2014 (Local Time) from EBCV Reporting Station
Clear Clear  
Wind Chill: 64°   Ceiling: Unl
Heat Index: 64°   Visibility: 6mi
Dew Point: 55°   Wind: 8mph
Humidity: 73%   Direction: 180°S
Pressure: 30.15"   Gusts: NA
Location:  50.65°N, 4.11°E
Report Text: EBCV 311225Z AUTO 18007KT 9999 NCD 18/13 Q1021 BLU
Loading
Personal Weather Stations






























Interactive Weather Map
Tropical Storm Tracking
New forecast layout! Learn more

10-Day Weather Forecast

Advertisements
Track Severe Weather on mobile